Time;durP1;ratioP1;P1;durP2;ratioP2;P2;SDS_P1;SDS_P2;PMS_P1;PMS_P2;Temp;Humidity;BMP_temperature;BMP_pressure;BME280_temperature;BME280_humidity;BME280_pressure;Samples;Min_cycle;Max_cycle;Signal;HPM_P1;HPM_P2
2023/04/12 00:01:32;;;;;;;;;;;7.10;99.90;;;;;;8232420;28;19910;-76
2023/04/12 00:05:33;;;;;;;;;;;7.00;99.90;;;;;;8238110;28;20358;-77
2023/04/12 00:09:35;;;;;;;;;;;7.00;99.90;;;;;;8221584;28;19945;-76
2023/04/12 00:13:35;;;;;;;;;;;6.90;99.90;;;;;;8241351;28;19951;-77
2023/04/12 00:17:36;;;;;;;;;;;6.90;99.90;;;;;;8222255;28;19910;-76
2023/04/12 00:21:36;;;;;;;;;;;6.90;99.90;;;;;;8247711;28;19965;-75
2023/04/12 00:25:38;;;;;;;;;;;7.00;99.90;;;;;;8235751;28;19937;-76
2023/04/12 00:29:38;;;;;;;;;;;6.80;99.90;;;;;;8221057;28;19960;-75
2023/04/12 00:33:38;;;;;;;;;;;6.80;99.90;;;;;;8226037;28;19910;-76
2023/04/12 00:37:39;;;;;;;;;;;6.70;99.90;;;;;;8248514;28;20291;-76
2023/04/12 00:41:39;;;;;;;;;;;6.80;99.90;;;;;;8228183;28;20017;-76
2023/04/12 00:45:40;;;;;;;;;;;6.80;99.90;;;;;;8248557;28;19909;-76
2023/04/12 00:49:41;;;;;;;;;;;6.80;99.90;;;;;;8222886;28;19917;-76
2023/04/12 00:53:41;;;;;;;;;;;6.80;99.90;;;;;;8221923;28;20405;-76
2023/04/12 00:57:42;;;;;;;;;;;6.90;99.90;;;;;;8227346;28;20350;-77
2023/04/12 01:01:44;;;;;;;;;;;6.90;99.90;;;;;;8221426;28;19929;-77
2023/04/12 01:05:48;;;;;;;;;;;7.00;99.90;;;;;;8221858;28;20504;-77
2023/04/12 01:10:00;;;;;;;;;;;7.00;99.90;;;;;;8213409;28;19906;-77
2023/04/12 01:14:21;;;;;;;;;;;6.80;99.90;;;;;;8235949;28;19921;-77
2023/04/12 01:18:23;;;;;;;;;;;6.90;99.90;;;;;;8235386;28;20306;-78
2023/04/12 01:22:39;;;;;;;;;;;6.90;99.90;;;;;;8218025;28;20000;-77
2023/04/12 01:26:41;;;;;;;;;;;6.90;99.90;;;;;;8235471;28;19910;-77
2023/04/12 01:30:43;;;;;;;;;;;7.00;99.90;;;;;;8238956;28;19918;-77
2023/04/12 01:34:44;;;;;;;;;;;6.80;99.90;;;;;;8247147;28;19910;-76
2023/04/12 01:38:45;;;;;;;;;;;6.90;99.90;;;;;;8254183;28;19913;-76
2023/04/12 01:42:46;;;;;;;;;;;6.90;99.90;;;;;;8247722;28;19906;-77
2023/04/12 01:46:47;;;;;;;;;;;6.90;99.90;;;;;;8239988;28;20350;-77
2023/04/12 01:51:14;;;;;;;;;;;6.90;99.90;;;;;;8228532;28;19910;-77
2023/04/12 01:55:15;;;;;;;;;;;6.80;99.90;;;;;;8212646;28;20548;-77
2023/04/12 01:59:16;;;;;;;;;;;6.80;99.90;;;;;;8222005;28;19921;-77
2023/04/12 02:03:19;;;;;;;;;;;6.80;99.90;;;;;;8220890;28;19906;-76
2023/04/12 02:07:20;;;;;;;;;;;6.70;99.90;;;;;;8217470;28;19910;-77
2023/04/12 02:11:20;;;;;;;;;;;6.80;99.90;;;;;;8215871;28;19917;-77
2023/04/12 02:15:21;;;;;;;;;;;6.80;99.90;;;;;;8234661;28;19909;-77
2023/04/12 02:19:21;;;;;;;;;;;6.80;99.90;;;;;;8219105;28;20366;-76
2023/04/12 02:23:22;;;;;;;;;;;6.60;99.90;;;;;;8225559;28;19914;-76
2023/04/12 02:27:22;;;;;;;;;;;6.80;99.90;;;;;;8231608;28;19921;-77
2023/04/12 02:31:23;;;;;;;;;;;6.80;99.90;;;;;;8223943;28;19913;-77
2023/04/12 02:35:23;;;;;;;;;;;6.60;99.90;;;;;;8238108;28;20457;-78
2023/04/12 02:39:24;;;;;;;;;;;6.60;99.90;;;;;;8235227;28;19961;-77
2023/04/12 02:43:25;;;;;;;;;;;6.60;99.90;;;;;;8217591;28;20387;-77
2023/04/12 02:47:27;;;;;;;;;;;6.60;99.90;;;;;;8227667;28;19941;-78
2023/04/12 02:51:28;;;;;;;;;;;6.60;99.90;;;;;;8238008;28;19979;-78
2023/04/12 02:55:29;;;;;;;;;;;6.60;99.90;;;;;;8221261;28;19910;-77
2023/04/12 02:59:29;;;;;;;;;;;6.60;99.90;;;;;;8214676;28;19906;-78
2023/04/12 03:03:30;;;;;;;;;;;6.70;99.90;;;;;;8231493;28;19906;-78
2023/04/12 03:07:31;;;;;;;;;;;6.60;99.90;;;;;;8236654;28;19910;-77
2023/04/12 03:11:32;;;;;;;;;;;6.60;99.90;;;;;;8243705;28;20279;-77
2023/04/12 03:15:32;;;;;;;;;;;6.80;99.90;;;;;;8221654;28;19910;-77
2023/04/12 03:19:34;;;;;;;;;;;6.70;99.90;;;;;;8219056;28;19910;-77
2023/04/12 03:23:34;;;;;;;;;;;6.80;99.90;;;;;;8226995;28;20318;-77
2023/04/12 03:27:35;;;;;;;;;;;6.70;99.90;;;;;;8222525;28;19972;-77
2023/04/12 03:31:35;;;;;;;;;;;6.90;99.90;;;;;;8226961;28;19914;-77
2023/04/12 03:35:35;;;;;;;;;;;6.80;99.90;;;;;;8235240;28;19959;-77
2023/04/12 03:39:36;;;;;;;;;;;6.80;99.90;;;;;;8221659;28;20290;-77
2023/04/12 03:43:36;;;;;;;;;;;6.70;99.90;;;;;;8226885;28;20523;-78
2023/04/12 03:47:37;;;;;;;;;;;6.90;99.90;;;;;;8227192;28;19917;-77
2023/04/12 03:51:41;;;;;;;;;;;6.90;99.90;;;;;;8230390;28;19961;-77
2023/04/12 03:55:42;;;;;;;;;;;6.80;99.90;;;;;;8222131;28;20043;-77
2023/04/12 03:59:42;;;;;;;;;;;6.90;99.90;;;;;;8226919;28;19946;-77
2023/04/12 04:03:43;;;;;;;;;;;6.80;99.90;;;;;;8233164;28;20004;-77
2023/04/12 04:07:44;;;;;;;;;;;6.70;99.90;;;;;;8229250;28;19914;-77
2023/04/12 04:11:45;;;;;;;;;;;6.70;99.90;;;;;;8225627;28;19910;-78
2023/04/12 04:15:48;;;;;;;;;;;6.70;99.90;;;;;;8243762;28;19910;-78
2023/04/12 04:19:49;;;;;;;;;;;6.70;99.90;;;;;;8224115;28;20343;-77
2023/04/12 04:23:50;;;;;;;;;;;6.90;99.90;;;;;;8223182;28;19913;-78
2023/04/12 04:27:51;;;;;;;;;;;6.80;99.90;;;;;;8232669;28;19949;-77
2023/04/12 04:31:52;;;;;;;;;;;6.70;99.90;;;;;;8224105;28;19914;-77
2023/04/12 04:35:54;;;;;;;;;;;6.80;99.90;;;;;;8221433;28;19910;-77
2023/04/12 04:39:54;;;;;;;;;;;6.80;99.90;;;;;;8229521;28;19918;-78
2023/04/12 04:43:55;;;;;;;;;;;6.80;99.90;;;;;;8225530;28;20012;-78
2023/04/12 04:47:55;;;;;;;;;;;6.80;99.90;;;;;;8249310;28;19905;-77
2023/04/12 04:51:56;;;;;;;;;;;6.60;99.90;;;;;;8236503;28;19916;-78
2023/04/12 04:55:57;;;;;;;;;;;6.50;99.90;;;;;;8224025;28;19910;-78
2023/04/12 04:59:57;;;;;;;;;;;6.70;99.90;;;;;;8226335;28;19909;-77
2023/04/12 05:03:58;;;;;;;;;;;6.60;99.90;;;;;;8226858;28;19964;-78
2023/04/12 05:07:58;;;;;;;;;;;6.80;99.90;;;;;;8232341;28;19909;-77
2023/04/12 05:11:59;;;;;;;;;;;6.80;99.90;;;;;;8224065;28;20420;-77
2023/04/12 05:15:59;;;;;;;;;;;6.80;99.90;;;;;;8232201;28;20177;-78
2023/04/12 05:20:00;;;;;;;;;;;6.80;99.90;;;;;;8221952;28;19920;-78
2023/04/12 05:24:00;;;;;;;;;;;6.70;99.90;;;;;;8221952;28;19921;-77
2023/04/12 05:28:01;;;;;;;;;;;6.60;99.90;;;;;;8219685;28;19905;-78
2023/04/12 05:32:01;;;;;;;;;;;6.80;99.90;;;;;;8224849;28;20466;-78
2023/04/12 05:36:02;;;;;;;;;;;6.80;99.90;;;;;;8221483;28;19951;-78
2023/04/12 05:40:05;;;;;;;;;;;6.90;99.90;;;;;;8231497;28;19968;-78
2023/04/12 05:44:05;;;;;;;;;;;6.90;99.90;;;;;;8228345;28;20401;-78
2023/04/12 05:48:06;;;;;;;;;;;6.90;99.90;;;;;;8223277;28;19913;-78
2023/04/12 05:52:07;;;;;;;;;;;6.80;99.90;;;;;;8214678;28;19917;-79
2023/04/12 05:56:07;;;;;;;;;;;6.90;99.90;;;;;;8218093;28;19906;-78
2023/04/12 06:00:17;;;;;;;;;;;6.80;99.90;;;;;;8214384;28;20410;-78
2023/04/12 06:04:18;;;;;;;;;;;6.70;99.90;;;;;;8238070;28;20413;-79
2023/04/12 06:08:18;;;;;;;;;;;6.90;99.90;;;;;;8220908;28;19997;-78
2023/04/12 06:12:18;;;;;;;;;;;6.90;99.90;;;;;;8237559;28;19917;-78
2023/04/12 06:16:19;;;;;;;;;;;6.90;99.90;;;;;;8234869;28;20154;-79
2023/04/12 06:20:20;;;;;;;;;;;7.10;99.90;;;;;;8219949;28;19906;-78
2023/04/12 06:24:20;;;;;;;;;;;7.20;99.90;;;;;;8212414;28;20383;-79
2023/04/12 06:28:21;;;;;;;;;;;7.20;99.90;;;;;;8218503;28;19909;-79
2023/04/12 06:32:21;;;;;;;;;;;7.30;99.90;;;;;;8215544;28;20162;-80
2023/04/12 06:36:22;;;;;;;;;;;7.40;99.90;;;;;;8220784;28;19912;-79
2023/04/12 06:40:22;;;;;;;;;;;7.50;99.90;;;;;;8228621;28;19913;-80
2023/04/12 06:44:23;;;;;;;;;;;7.60;99.90;;;;;;8237876;28;19953;-80
2023/04/12 06:48:23;;;;;;;;;;;7.70;99.90;;;;;;8219324;28;19996;-80
2023/04/12 06:52:26;;;;;;;;;;;7.80;99.90;;;;;;8233840;28;19917;-80
2023/04/12 06:56:27;;;;;;;;;;;7.80;99.90;;;;;;8219953;28;19906;-81
2023/04/12 07:00:27;;;;;;;;;;;7.80;99.90;;;;;;8239909;28;20045;-81
2023/04/12 07:04:28;;;;;;;;;;;7.70;99.90;;;;;;8231577;28;19906;-81
2023/04/12 07:08:29;;;;;;;;;;;7.70;99.90;;;;;;8250522;28;19960;-81
2023/04/12 07:12:30;;;;;;;;;;;7.70;99.90;;;;;;8220458;28;19909;-81
2023/04/12 07:16:31;;;;;;;;;;;7.70;99.90;;;;;;8226067;28;20079;-82
2023/04/12 07:20:31;;;;;;;;;;;7.80;99.90;;;;;;8222562;28;19913;-81
2023/04/12 07:24:32;;;;;;;;;;;7.90;99.90;;;;;;8225818;28;19914;-81
2023/04/12 07:28:34;;;;;;;;;;;8.10;99.90;;;;;;8253469;28;19912;-81
2023/04/12 07:32:35;;;;;;;;;;;8.10;99.90;;;;;;8228472;28;19917;-81
2023/04/12 07:36:35;;;;;;;;;;;8.20;99.90;;;;;;8229048;28;19906;-81
2023/04/12 07:40:36;;;;;;;;;;;8.30;99.90;;;;;;8239662;28;19960;-81
2023/04/12 07:44:36;;;;;;;;;;;8.50;99.90;;;;;;8240809;28;19902;-81
2023/04/12 07:48:36;;;;;;;;;;;8.70;99.90;;;;;;8234030;28;20357;-81
2023/04/12 07:52:37;;;;;;;;;;;8.80;99.90;;;;;;8226607;28;19910;-81
2023/04/12 07:56:37;;;;;;;;;;;9.00;99.90;;;;;;8218699;28;19906;-81
2023/04/12 08:00:38;;;;;;;;;;;9.10;99.90;;;;;;8238539;28;20381;-82
2023/04/12 08:04:42;;;;;;;;;;;9.30;99.90;;;;;;8233282;28;19906;-83
2023/04/12 08:08:43;;;;;;;;;;;9.70;99.90;;;;;;8219507;28;20001;-82
2023/04/12 08:12:44;;;;;;;;;;;10.10;99.90;;;;;;8228425;28;19936;-82
2023/04/12 08:16:44;;;;;;;;;;;10.20;99.90;;;;;;8225189;28;20426;-83
2023/04/12 08:20:46;;;;;;;;;;;10.50;99.90;;;;;;8224601;28;19917;-83
2023/04/12 08:24:46;;;;;;;;;;;11.10;99.90;;;;;;8228619;28;19910;-83
2023/04/12 08:28:47;;;;;;;;;;;11.20;99.90;;;;;;8223901;28;19910;-83
2023/04/12 08:32:47;;;;;;;;;;;11.50;99.90;;;;;;8220319;28;20432;-83
2023/04/12 08:36:48;;;;;;;;;;;11.90;99.90;;;;;;8221660;28;19948;-82
2023/04/12 08:40:49;;;;;;;;;;;12.10;99.90;;;;;;8247574;28;19913;-83
2023/04/12 08:44:51;;;;;;;;;;;12.10;99.90;;;;;;8244986;28;19906;-83
2023/04/12 08:48:56;;;;;;;;;;;12.40;99.90;;;;;;8240273;28;19917;-84
2023/04/12 08:52:57;;;;;;;;;;;12.80;99.90;;;;;;8241593;28;19909;-84
2023/04/12 08:56:59;;;;;;;;;;;13.00;99.90;;;;;;8226517;28;19906;-84
2023/04/12 09:01:00;;;;;;;;;;;13.30;99.90;;;;;;8224951;28;19929;-83
2023/04/12 09:05:01;;;;;;;;;;;13.70;99.90;;;;;;8229440;28;19937;-84
2023/04/12 09:09:05;;;;;;;;;;;13.50;99.90;;;;;;8224936;28;19992;-84
2023/04/12 09:13:06;;;;;;;;;;;13.70;99.90;;;;;;8218728;28;20008;-83
2023/04/12 09:17:22;;;;;;;;;;;14.10;99.90;;;;;;8220944;28;19917;-83
2023/04/12 09:21:23;;;;;;;;;;;14.90;99.90;;;;;;8245034;28;20334;-82
2023/04/12 09:25:34;;;;;;;;;;;15.40;99.90;;;;;;8222759;28;19909;-83
2023/04/12 09:29:35;;;;;;;;;;;15.60;99.90;;;;;;8216533;28;19913;-82
2023/04/12 09:33:36;;;;;;;;;;;15.70;99.90;;;;;;8244997;28;20267;-82
2023/04/12 09:37:37;;;;;;;;;;;15.50;99.90;;;;;;8223442;28;20605;-82
2023/04/12 09:41:38;;;;;;;;;;;15.40;99.90;;;;;;8212956;28;19906;-82
2023/04/12 09:45:38;;;;;;;;;;;15.60;99.90;;;;;;8242954;28;19928;-81
2023/04/12 09:49:40;;;;;;;;;;;15.30;99.90;;;;;;8252979;28;19906;-81
2023/04/12 09:53:43;;;;;;;;;;;15.70;99.90;;;;;;8237967;28;19917;-81
2023/04/12 09:57:44;;;;;;;;;;;15.80;99.90;;;;;;8237183;28;19910;-81
2023/04/12 10:01:45;;;;;;;;;;;16.00;99.90;;;;;;8242584;28;19989;-80
2023/04/12 10:05:45;;;;;;;;;;;16.40;99.90;;;;;;8222896;28;20058;-80
2023/04/12 10:09:47;;;;;;;;;;;16.00;99.90;;;;;;8216541;28;19910;-80
2023/04/12 10:13:48;;;;;;;;;;;15.60;99.90;;;;;;8231677;28;19914;-80
2023/04/12 10:17:50;;;;;;;;;;;15.50;99.90;;;;;;8213475;28;19906;-80
2023/04/12 10:21:51;;;;;;;;;;;15.20;99.90;;;;;;8216121;28;19921;-80
2023/04/12 10:25:52;;;;;;;;;;;15.10;99.90;;;;;;8215163;28;20370;-80
2023/04/12 10:29:52;;;;;;;;;;;15.20;99.90;;;;;;8219864;28;19938;-79
2023/04/12 10:33:53;;;;;;;;;;;15.20;99.90;;;;;;8237554;28;19913;-79
2023/04/12 10:38:00;;;;;;;;;;;15.20;99.90;;;;;;8243546;28;19910;-78
2023/04/12 10:42:23;;;;;;;;;;;15.50;99.90;;;;;;8238728;28;19973;-79
2023/04/12 10:46:39;;;;;;;;;;;16.00;99.90;;;;;;8240489;28;19917;-79
2023/04/12 10:50:40;;;;;;;;;;;16.00;99.90;;;;;;8221917;28;19906;-79
2023/04/12 10:54:40;;;;;;;;;;;15.40;99.90;;;;;;8219741;28;19917;-78
2023/04/12 10:58:47;;;;;;;;;;;14.80;99.90;;;;;;8218317;28;20367;-78
2023/04/12 11:03:07;;;;;;;;;;;14.20;99.90;;;;;;8221726;28;19992;-78
2023/04/12 11:07:10;;;;;;;;;;;13.70;99.90;;;;;;8216622;28;19906;-78
2023/04/12 11:11:18;;;;;;;;;;;13.70;99.90;;;;;;8236777;28;20361;-78
2023/04/12 11:15:18;;;;;;;;;;;13.50;99.90;;;;;;8237134;28;20005;-79
2023/04/12 11:19:19;;;;;;;;;;;13.10;99.90;;;;;;8216824;28;20370;-78
2023/04/12 11:23:20;;;;;;;;;;;13.00;99.90;;;;;;8220101;28;19926;-78
2023/04/12 11:27:22;;;;;;;;;;;12.80;99.90;;;;;;8214052;28;20160;-78
2023/04/12 11:31:22;;;;;;;;;;;12.60;99.90;;;;;;8218363;28;20001;-78
2023/04/12 11:35:26;;;;;;;;;;;12.40;99.90;;;;;;8243470;28;20393;-78
2023/04/12 11:39:27;;;;;;;;;;;12.40;99.90;;;;;;8240864;28;20382;-78
2023/04/12 11:43:28;;;;;;;;;;;12.60;99.90;;;;;;8222825;28;19909;-78
2023/04/12 11:47:28;;;;;;;;;;;12.90;99.90;;;;;;8236114;28;19913;-78
2023/04/12 11:51:31;;;;;;;;;;;13.40;99.90;;;;;;8227110;28;19910;-78
2023/04/12 11:55:32;;;;;;;;;;;13.60;99.90;;;;;;8220048;28;19907;-78
2023/04/12 11:59:33;;;;;;;;;;;14.00;99.90;;;;;;8227672;28;20491;-78
2023/04/12 12:03:33;;;;;;;;;;;14.90;99.90;;;;;;8226418;28;19910;-79
2023/04/12 12:07:35;;;;;;;;;;;15.00;99.90;;;;;;8226154;28;19979;-77
2023/04/12 12:11:35;;;;;;;;;;;14.50;99.90;;;;;;8239373;28;20406;-77
2023/04/12 12:15:36;;;;;;;;;;;13.80;99.90;;;;;;8226704;28;19989;-77
2023/04/12 12:19:38;;;;;;;;;;;13.50;99.90;;;;;;8230018;28;19910;-77
2023/04/12 12:23:40;;;;;;;;;;;13.60;99.90;;;;;;8238447;28;20414;-78
2023/04/12 12:27:43;;;;;;;;;;;14.60;99.90;;;;;;8225044;28;19945;-78
2023/04/12 12:31:47;;;;;;;;;;;16.80;99.90;;;;;;8226161;28;20325;-78
2023/04/12 12:35:55;;;;;;;;;;;17.70;99.90;;;;;;8229896;28;20370;-78
2023/04/12 12:40:12;;;;;;;;;;;17.90;99.90;;;;;;8238870;28;19930;-79
2023/04/12 12:44:13;;;;;;;;;;;19.70;99.90;;;;;;8242393;28;19913;-77
2023/04/12 12:48:13;;;;;;;;;;;20.30;99.90;;;;;;8248804;28;19917;-78
2023/04/12 12:52:14;;;;;;;;;;;20.40;99.90;;;;;;8240914;28;19914;-78
2023/04/12 12:56:14;;;;;;;;;;;19.40;99.90;;;;;;8240652;28;20485;-78
2023/04/12 13:00:15;;;;;;;;;;;19.40;99.90;;;;;;8234995;28;20396;-76
2023/04/12 13:04:16;;;;;;;;;;;19.40;99.90;;;;;;8238031;28;20554;-78
2023/04/12 13:08:16;;;;;;;;;;;18.80;99.90;;;;;;8219959;28;19952;-78
2023/04/12 13:12:17;;;;;;;;;;;19.20;99.90;;;;;;8239946;28;20298;-79
2023/04/12 13:16:17;;;;;;;;;;;19.40;99.90;;;;;;8238219;28;19905;-78
2023/04/12 13:20:18;;;;;;;;;;;18.30;99.90;;;;;;8216298;28;20058;-78
2023/04/12 13:24:18;;;;;;;;;;;18.90;99.90;;;;;;8233046;28;19995;-78
2023/04/12 13:28:19;;;;;;;;;;;18.10;99.90;;;;;;8220726;28;19917;-78
2023/04/12 13:32:20;;;;;;;;;;;16.90;99.90;;;;;;8225499;28;19932;-78
2023/04/12 13:36:20;;;;;;;;;;;16.70;99.90;;;;;;8221108;28;19918;-78
2023/04/12 13:40:20;;;;;;;;;;;17.00;99.90;;;;;;8216845;28;20211;-78
2023/04/12 13:44:21;;;;;;;;;;;17.90;99.90;;;;;;8240342;28;19910;-80
2023/04/12 13:48:22;;;;;;;;;;;18.20;99.90;;;;;;8223042;28;19964;-78
2023/04/12 13:52:23;;;;;;;;;;;17.00;99.90;;;;;;8223831;28;20045;-79
2023/04/12 13:56:23;;;;;;;;;;;16.70;99.90;;;;;;8224122;28;19910;-80
2023/04/12 14:00:24;;;;;;;;;;;16.40;99.90;;;;;;8237060;28;19910;-80
2023/04/12 14:04:26;;;;;;;;;;;16.20;99.90;;;;;;8238957;28;19956;-79
2023/04/12 14:08:27;;;;;;;;;;;16.40;99.90;;;;;;8221743;28;19946;-78
2023/04/12 14:12:28;;;;;;;;;;;17.20;99.90;;;;;;8232733;28;19914;-79
2023/04/12 14:16:28;;;;;;;;;;;18.50;99.90;;;;;;8245768;28;19948;-79
2023/04/12 14:20:29;;;;;;;;;;;19.30;99.90;;;;;;8228117;28;19917;-79
2023/04/12 14:24:30;;;;;;;;;;;18.60;99.90;;;;;;8224129;28;19914;-78
2023/04/12 14:28:33;;;;;;;;;;;18.60;99.90;;;;;;8241102;28;19906;-79
2023/04/12 14:32:33;;;;;;;;;;;19.60;99.90;;;;;;8225760;28;19910;-83
2023/04/12 14:36:34;;;;;;;;;;;18.30;99.90;;;;;;8231622;28;19918;-79
2023/04/12 14:40:34;;;;;;;;;;;16.70;99.90;;;;;;8227350;28;20388;-79
2023/04/12 14:44:35;;;;;;;;;;;16.80;99.90;;;;;;8247038;28;20329;-78
2023/04/12 14:48:36;;;;;;;;;;;17.30;99.90;;;;;;8253228;28;19916;-79
2023/04/12 14:52:36;;;;;;;;;;;17.30;99.90;;;;;;8223688;28;19916;-79
2023/04/12 14:56:37;;;;;;;;;;;16.60;99.90;;;;;;8217950;28;19910;-79
2023/04/12 15:00:37;;;;;;;;;;;15.70;99.90;;;;;;8231409;28;19960;-79
2023/04/12 15:04:38;;;;;;;;;;;15.10;99.90;;;;;;8240469;28;19913;-79
2023/04/12 15:08:41;;;;;;;;;;;14.80;99.90;;;;;;8236192;28;19910;-80
2023/04/12 15:12:42;;;;;;;;;;;14.90;99.90;;;;;;8228491;28;19964;-79
2023/04/12 15:16:45;;;;;;;;;;;14.80;99.90;;;;;;8231791;28;19973;-80
2023/04/12 15:20:45;;;;;;;;;;;15.80;99.90;;;;;;8243901;28;19944;-80
2023/04/12 15:24:45;;;;;;;;;;;16.10;99.90;;;;;;8248020;28;19914;-79
2023/04/12 15:28:46;;;;;;;;;;;16.10;99.90;;;;;;8230578;28;19914;-80
2023/04/12 15:32:47;;;;;;;;;;;15.60;99.90;;;;;;8254230;28;19922;-80
2023/04/12 15:36:48;;;;;;;;;;;15.40;99.90;;;;;;8233147;28;19965;-80
2023/04/12 15:40:55;;;;;;;;;;;15.30;99.90;;;;;;8238644;28;20002;-79
2023/04/12 15:44:56;;;;;;;;;;;15.00;99.90;;;;;;8234274;28;19921;-81
2023/04/12 15:48:57;;;;;;;;;;;15.20;99.90;;;;;;8230058;28;19913;-80
2023/04/12 15:52:58;;;;;;;;;;;15.10;99.90;;;;;;8256679;28;19956;-81
2023/04/12 15:57:01;;;;;;;;;;;15.30;99.90;;;;;;8245026;28;20395;-84
2023/04/12 16:01:01;;;;;;;;;;;15.20;99.90;;;;;;8224141;28;20002;-82
2023/04/12 16:05:02;;;;;;;;;;;15.00;99.90;;;;;;8237657;28;19945;-83
2023/04/12 16:09:03;;;;;;;;;;;14.90;99.90;;;;;;8250363;28;20330;-83
2023/04/12 16:13:04;;;;;;;;;;;14.10;99.90;;;;;;8238677;28;19918;-83
2023/04/12 16:17:05;;;;;;;;;;;14.10;99.90;;;;;;8249326;28;19909;-83
2023/04/12 16:21:05;;;;;;;;;;;13.80;99.90;;;;;;8232872;28;19910;-80
2023/04/12 16:25:07;;;;;;;;;;;13.70;99.90;;;;;;8232797;28;20003;-79
2023/04/12 16:29:07;;;;;;;;;;;13.40;99.90;;;;;;8232269;28;19909;-79
2023/04/12 16:33:08;;;;;;;;;;;13.30;99.90;;;;;;8245514;28;19975;-78
2023/04/12 16:37:09;;;;;;;;;;;12.70;99.90;;;;;;8237549;28;19957;-79
2023/04/12 16:41:10;;;;;;;;;;;12.50;99.90;;;;;;8221750;28;19964;-79
2023/04/12 16:45:10;;;;;;;;;;;12.00;99.90;;;;;;8227282;28;19914;-79
2023/04/12 16:49:12;;;;;;;;;;;11.80;99.90;;;;;;8224476;28;19913;-79
2023/04/12 16:53:14;;;;;;;;;;;11.50;99.90;;;;;;8223714;28;19921;-77
2023/04/12 16:57:16;;;;;;;;;;;11.30;99.90;;;;;;8218961;28;19977;-78
2023/04/12 17:01:16;;;;;;;;;;;11.10;99.90;;;;;;8247095;28;19909;-78
2023/04/12 17:05:18;;;;;;;;;;;10.90;99.90;;;;;;8248589;28;19909;-78
2023/04/12 17:09:19;;;;;;;;;;;10.90;99.90;;;;;;8227053;28;19916;-78
2023/04/12 17:13:20;;;;;;;;;;;10.80;99.90;;;;;;8229132;28;20382;-78
2023/04/12 17:17:20;;;;;;;;;;;10.70;99.90;;;;;;8238272;28;19914;-78
2023/04/12 17:21:21;;;;;;;;;;;10.70;99.90;;;;;;8227983;28;19925;-78
2023/04/12 17:25:21;;;;;;;;;;;10.70;99.90;;;;;;8239787;28;20387;-78
2023/04/12 17:29:22;;;;;;;;;;;10.50;99.90;;;;;;8230508;28;19918;-78
2023/04/12 17:33:22;;;;;;;;;;;10.50;99.90;;;;;;8219550;28;19917;-77
2023/04/12 17:37:23;;;;;;;;;;;10.30;99.90;;;;;;8221664;28;20371;-77
2023/04/12 17:41:25;;;;;;;;;;;10.10;99.90;;;;;;8215734;28;19910;-78
2023/04/12 17:45:25;;;;;;;;;;;9.90;99.90;;;;;;8222791;28;19906;-78
2023/04/12 17:49:26;;;;;;;;;;;9.70;99.90;;;;;;8229070;28;19905;-78
2023/04/12 17:53:26;;;;;;;;;;;9.70;99.90;;;;;;8239555;28;19910;-79
2023/04/12 17:57:27;;;;;;;;;;;9.80;99.90;;;;;;8236945;28;20453;-78
2023/04/12 18:01:27;;;;;;;;;;;9.70;99.90;;;;;;8217187;28;19917;-78
2023/04/12 18:05:28;;;;;;;;;;;9.60;99.90;;;;;;8227141;28;19906;-78
2023/04/12 18:09:28;;;;;;;;;;;9.60;99.90;;;;;;8242357;28;19914;-79
2023/04/12 18:13:29;;;;;;;;;;;9.50;99.90;;;;;;8243284;28;20318;-78
2023/04/12 18:17:29;;;;;;;;;;;9.40;99.90;;;;;;8228826;28;19910;-79
2023/04/12 18:21:31;;;;;;;;;;;9.50;99.90;;;;;;8227087;28;19917;-78
2023/04/12 18:25:31;;;;;;;;;;;9.70;99.90;;;;;;8223382;28;19957;-79
2023/04/12 18:29:32;;;;;;;;;;;9.50;99.90;;;;;;8219133;28;20326;-79
2023/04/12 18:33:32;;;;;;;;;;;9.50;99.90;;;;;;8228013;28;19921;-80
2023/04/12 18:37:33;;;;;;;;;;;9.50;99.90;;;;;;8224764;28;19945;-79
2023/04/12 18:41:33;;;;;;;;;;;9.30;99.90;;;;;;8241740;28;19906;-78
2023/04/12 18:45:37;;;;;;;;;;;9.40;99.90;;;;;;8222311;28;20361;-78
2023/04/12 18:49:37;;;;;;;;;;;9.20;99.90;;;;;;8221695;28;19969;-78
2023/04/12 18:53:38;;;;;;;;;;;9.10;99.90;;;;;;8235223;28;19970;-77
2023/04/12 18:57:38;;;;;;;;;;;8.70;99.90;;;;;;8224096;28;20295;-77
2023/04/12 19:01:38;;;;;;;;;;;8.50;99.90;;;;;;8226124;28;19910;-79
2023/04/12 19:05:39;;;;;;;;;;;8.40;99.90;;;;;;8221643;28;20342;-78
2023/04/12 19:09:40;;;;;;;;;;;8.40;99.90;;;;;;8242464;28;19905;-77
2023/04/12 19:13:40;;;;;;;;;;;8.30;99.90;;;;;;8238241;28;19918;-78
2023/04/12 19:17:40;;;;;;;;;;;8.30;99.90;;;;;;8231587;28;19906;-79
2023/04/12 19:21:41;;;;;;;;;;;8.20;99.90;;;;;;8230243;28;20533;-78
2023/04/12 19:25:41;;;;;;;;;;;8.10;99.90;;;;;;8230679;28;19913;-78
2023/04/12 19:29:42;;;;;;;;;;;8.00;99.90;;;;;;8251081;28;20388;-77
2023/04/12 19:33:43;;;;;;;;;;;7.90;99.90;;;;;;8230428;28;19914;-79
2023/04/12 19:37:43;;;;;;;;;;;8.20;99.90;;;;;;8236257;28;19924;-78
2023/04/12 19:41:47;;;;;;;;;;;8.10;99.90;;;;;;8231963;28;20494;-79
2023/04/12 19:45:47;;;;;;;;;;;8.10;99.90;;;;;;8240570;28;19906;-78
2023/04/12 19:49:48;;;;;;;;;;;8.00;99.90;;;;;;8228395;28;19910;-79
2023/04/12 19:53:51;;;;;;;;;;;8.00;99.90;;;;;;8242570;28;19914;-79
2023/04/12 19:57:51;;;;;;;;;;;8.20;99.90;;;;;;8245511;28;19910;-78
2023/04/12 20:01:54;;;;;;;;;;;8.00;99.90;;;;;;8224738;28;19960;-79
2023/04/12 20:05:57;;;;;;;;;;;8.00;99.90;;;;;;8245063;28;20298;-79
2023/04/12 20:09:59;;;;;;;;;;;8.00;99.90;;;;;;8247277;28;19912;-78
2023/04/12 20:13:59;;;;;;;;;;;7.80;99.90;;;;;;8231142;28;19913;-78
2023/04/12 20:18:00;;;;;;;;;;;7.60;99.90;;;;;;8242725;28;19917;-78
2023/04/12 20:22:00;;;;;;;;;;;7.70;99.90;;;;;;8244415;28;19914;-79
2023/04/12 20:26:01;;;;;;;;;;;8.00;99.90;;;;;;8229877;28;19906;-77
2023/04/12 20:30:02;;;;;;;;;;;7.90;99.90;;;;;;8226253;28;19909;-78
2023/04/12 20:34:02;;;;;;;;;;;7.80;99.90;;;;;;8228892;28;19913;-80
2023/04/12 20:38:04;;;;;;;;;;;7.80;99.90;;;;;;8223938;28;19941;-79
2023/04/12 20:42:04;;;;;;;;;;;7.60;99.90;;;;;;8230015;28;20109;-79
2023/04/12 20:46:08;;;;;;;;;;;7.60;99.90;;;;;;8236753;28;19936;-80
2023/04/12 20:50:09;;;;;;;;;;;7.60;99.90;;;;;;8224840;28;19906;-79
2023/04/12 20:54:10;;;;;;;;;;;7.50;99.90;;;;;;8230370;28;19917;-79
2023/04/12 20:58:15;;;;;;;;;;;7.60;99.90;;;;;;8227011;28;19957;-80
2023/04/12 21:02:16;;;;;;;;;;;7.60;99.90;;;;;;8241851;28;19913;-79
2023/04/12 21:06:16;;;;;;;;;;;7.70;99.90;;;;;;8244669;28;19913;-80
2023/04/12 21:10:17;;;;;;;;;;;7.70;99.90;;;;;;8237699;28;20014;-80
2023/04/12 21:14:18;;;;;;;;;;;7.70;99.90;;;;;;8232140;28;20000;-81
2023/04/12 21:18:19;;;;;;;;;;;7.70;99.90;;;;;;8227979;28;19972;-80
2023/04/12 21:22:20;;;;;;;;;;;7.80;99.90;;;;;;8231366;28;19914;-80
2023/04/12 21:26:20;;;;;;;;;;;7.80;99.90;;;;;;8246927;28;19917;-81
2023/04/12 21:30:21;;;;;;;;;;;7.80;99.90;;;;;;8234876;28;19910;-80
2023/04/12 21:34:22;;;;;;;;;;;7.80;99.90;;;;;;8236114;28;20511;-80
2023/04/12 21:38:22;;;;;;;;;;;7.70;99.90;;;;;;8235909;28;19940;-81
2023/04/12 21:42:23;;;;;;;;;;;7.70;99.90;;;;;;8243731;28;19992;-81
2023/04/12 21:46:27;;;;;;;;;;;7.80;99.90;;;;;;8253892;28;20012;-81
2023/04/12 21:50:27;;;;;;;;;;;7.70;99.90;;;;;;8239496;28;20000;-80
2023/04/12 21:54:30;;;;;;;;;;;7.80;99.90;;;;;;8242392;28;19986;-79
2023/04/12 21:58:31;;;;;;;;;;;7.90;99.90;;;;;;8249808;28;19912;-79
2023/04/12 22:02:32;;;;;;;;;;;7.80;99.90;;;;;;8246184;28;19921;-78
2023/04/12 22:06:32;;;;;;;;;;;7.80;99.90;;;;;;8243364;28;20358;-78
2023/04/12 22:10:33;;;;;;;;;;;7.60;99.90;;;;;;8218451;28;19929;-79
2023/04/12 22:14:35;;;;;;;;;;;7.80;99.90;;;;;;8222770;28;20326;-79
2023/04/12 22:18:36;;;;;;;;;;;7.90;99.90;;;;;;8222839;28;20407;-78
2023/04/12 22:22:37;;;;;;;;;;;7.80;99.90;;;;;;8239516;28;19988;-79
2023/04/12 22:26:37;;;;;;;;;;;7.70;99.90;;;;;;8227489;28;20001;-80
2023/04/12 22:30:38;;;;;;;;;;;7.60;99.90;;;;;;8220596;28;19914;-82
2023/04/12 22:34:38;;;;;;;;;;;7.30;99.90;;;;;;8230771;28;19910;-82
2023/04/12 22:38:39;;;;;;;;;;;7.10;99.90;;;;;;8250200;28;19906;-82
2023/04/12 22:42:46;;;;;;;;;;;6.90;99.90;;;;;;8234625;28;19921;-82
2023/04/12 22:46:53;;;;;;;;;;;6.80;99.90;;;;;;8248409;28;19906;-82
2023/04/12 22:50:53;;;;;;;;;;;6.70;99.90;;;;;;8225540;28;19941;-82
2023/04/12 22:54:54;;;;;;;;;;;6.60;99.90;;;;;;8236072;28;19921;-82
2023/04/12 22:58:54;;;;;;;;;;;6.60;99.90;;;;;;8231153;28;20397;-82
2023/04/12 23:02:54;;;;;;;;;;;6.50;99.90;;;;;;8230814;28;19910;-82
2023/04/12 23:06:55;;;;;;;;;;;6.30;99.90;;;;;;8241536;28;20366;-83
2023/04/12 23:11:03;;;;;;;;;;;6.20;99.90;;;;;;8231010;28;19968;-83
2023/04/12 23:15:04;;;;;;;;;;;6.40;99.90;;;;;;8224994;28;19906;-84
2023/04/12 23:19:05;;;;;;;;;;;6.50;99.90;;;;;;8254160;28;19949;-84
2023/04/12 23:23:05;;;;;;;;;;;6.40;99.90;;;;;;8255351;28;19914;-84
2023/04/12 23:27:06;;;;;;;;;;;6.30;99.90;;;;;;8224096;28;20005;-85
2023/04/12 23:31:07;;;;;;;;;;;6.10;99.90;;;;;;8232626;28;20461;-84
2023/04/12 23:35:07;;;;;;;;;;;6.10;99.90;;;;;;8229254;28;20009;-84